sensor_id;sensor_type;location;lat;lon;timestamp;pressure;altitude;pressure_sealevel;temperature;humidity
4576;BME280;2300;51.874;8.430;2024-02-16T00:01:01;100346.66;;;10.15;96.66
4576;BME280;2300;51.874;8.430;2024-02-16T00:03:28;100345.56;;;10.16;96.31
4576;BME280;2300;51.874;8.430;2024-02-16T00:05:54;100335.69;;;10.04;97.07
4576;BME280;2300;51.874;8.430;2024-02-16T00:08:21;100341.06;;;10.10;96.69
4576;BME280;2300;51.874;8.430;2024-02-16T00:10:49;100340.94;;;10.05;96.48
4576;BME280;2300;51.874;8.430;2024-02-16T00:13:15;100337.22;;;9.99;96.60
4576;BME280;2300;51.874;8.430;2024-02-16T00:15:42;100341.41;;;10.02;96.93
4576;BME280;2300;51.874;8.430;2024-02-16T00:18:08;100334.84;;;10.03;96.55
4576;BME280;2300;51.874;8.430;2024-02-16T00:20:35;100338.66;;;10.02;96.32
4576;BME280;2300;51.874;8.430;2024-02-16T00:23:01;100333.03;;;9.97;96.62
4576;BME280;2300;51.874;8.430;2024-02-16T00:25:28;100336.03;;;9.84;96.93
4576;BME280;2300;51.874;8.430;2024-02-16T00:27:56;100335.31;;;9.88;97.34
4576;BME280;2300;51.874;8.430;2024-02-16T00:30:22;100336.28;;;9.94;97.11
4576;BME280;2300;51.874;8.430;2024-02-16T00:32:49;100329.72;;;9.95;96.63
4576;BME280;2300;51.874;8.430;2024-02-16T00:35:15;100327.78;;;9.95;96.63
4576;BME280;2300;51.874;8.430;2024-02-16T00:37:43;100332.19;;;9.85;96.53
4576;BME280;2300;51.874;8.430;2024-02-16T00:40:11;100326.69;;;9.85;96.65
4576;BME280;2300;51.874;8.430;2024-02-16T00:42:38;100328.25;;;9.81;97.13
4576;BME280;2300;51.874;8.430;2024-02-16T00:45:07;100326.25;;;9.88;96.33
4576;BME280;2300;51.874;8.430;2024-02-16T00:47:35;100329.09;;;9.93;96.38
4576;BME280;2300;51.874;8.430;2024-02-16T00:50:02;100327.31;;;9.87;96.97
4576;BME280;2300;51.874;8.430;2024-02-16T00:52:30;100332.31;;;9.90;96.71
4576;BME280;2300;51.874;8.430;2024-02-16T00:54:57;100323.63;;;9.93;96.42
4576;BME280;2300;51.874;8.430;2024-02-16T00:57:23;100333.53;;;9.94;95.97
4576;BME280;2300;51.874;8.430;2024-02-16T00:59:50;100327.19;;;9.93;96.45
4576;BME280;2300;51.874;8.430;2024-02-16T01:02:18;100332.72;;;10.05;95.96
4576;BME280;2300;51.874;8.430;2024-02-16T01:04:44;100338.66;;;10.02;95.48
4576;BME280;2300;51.874;8.430;2024-02-16T01:07:12;100331.97;;;9.98;95.32
4576;BME280;2300;51.874;8.430;2024-02-16T01:09:38;100327.56;;;10.09;95.55
4576;BME280;2300;51.874;8.430;2024-02-16T01:12:05;100330.78;;;10.06;95.44
4576;BME280;2300;51.874;8.430;2024-02-16T01:14:32;100329.09;;;9.93;95.29
4576;BME280;2300;51.874;8.430;2024-02-16T01:16:58;100333.28;;;9.95;95.75
4576;BME280;2300;51.874;8.430;2024-02-16T01:19:26;100328.16;;;9.99;95.32
4576;BME280;2300;51.874;8.430;2024-02-16T01:21:52;100320.88;;;9.93;95.59
4576;BME280;2300;51.874;8.430;2024-02-16T01:24:22;100321.94;;;9.92;95.42
4576;BME280;2300;51.874;8.430;2024-02-16T01:26:49;100319.81;;;9.94;95.37
4576;BME280;2300;51.874;8.430;2024-02-16T01:29:15;100320.03;;;9.81;96.06
4576;BME280;2300;51.874;8.430;2024-02-16T01:31:42;100317.88;;;9.83;95.71
4576;BME280;2300;51.874;8.430;2024-02-16T01:34:08;100324.56;;;9.87;95.96
4576;BME280;2300;51.874;8.430;2024-02-16T01:36:36;100318.47;;;9.85;95.34
4576;BME280;2300;51.874;8.430;2024-02-16T01:39:03;100318.00;;;9.88;95.28
4576;BME280;2300;51.874;8.430;2024-02-16T01:41:29;100317.66;;;9.84;95.37
4576;BME280;2300;51.874;8.430;2024-02-16T01:43:56;100316.81;;;9.84;95.20
4576;BME280;2300;51.874;8.430;2024-02-16T01:46:22;100315.03;;;9.78;95.27
4576;BME280;2300;51.874;8.430;2024-02-16T01:48:49;100318.34;;;9.80;95.27
4576;BME280;2300;51.874;8.430;2024-02-16T01:51:16;100313.94;;;9.79;95.46
4576;BME280;2300;51.874;8.430;2024-02-16T01:53:44;100310.25;;;9.85;95.52
4576;BME280;2300;51.874;8.430;2024-02-16T01:56:11;100320.28;;;9.79;95.67
4576;BME280;2300;51.874;8.430;2024-02-16T01:58:38;100314.06;;;9.84;95.39
4576;BME280;2300;51.874;8.430;2024-02-16T02:01:04;100312.75;;;9.86;95.54
4576;BME280;2300;51.874;8.430;2024-02-16T02:03:31;100319.06;;;9.87;95.28
4576;BME280;2300;51.874;8.430;2024-02-16T02:05:58;100316.81;;;9.84;94.70
4576;BME280;2300;51.874;8.430;2024-02-16T02:08:25;100302.28;;;9.83;94.59
4576;BME280;2300;51.874;8.430;2024-02-16T02:10:53;100315.50;;;9.86;94.52
4576;BME280;2300;51.874;8.430;2024-02-16T02:13:19;100304.19;;;9.83;95.04
4576;BME280;2300;51.874;8.430;2024-02-16T02:15:47;100300.94;;;9.86;94.75
4576;BME280;2300;51.874;8.430;2024-02-16T02:18:13;100300.09;;;9.85;94.70
4576;BME280;2300;51.874;8.430;2024-02-16T02:20:40;100297.38;;;9.74;94.84
4576;BME280;2300;51.874;8.430;2024-02-16T02:23:08;100304.06;;;9.78;95.08
4576;BME280;2300;51.874;8.430;2024-02-16T02:25:35;100296.28;;;9.75;95.07
4576;BME280;2300;51.874;8.430;2024-02-16T02:28:02;100291.41;;;9.77;95.21
4576;BME280;2300;51.874;8.430;2024-02-16T02:30:29;100292.97;;;9.73;94.84
4576;BME280;2300;51.874;8.430;2024-02-16T02:32:55;100289.63;;;9.82;94.76
4576;BME280;2300;51.874;8.430;2024-02-16T02:35:22;100286.78;;;9.89;94.28
4576;BME280;2300;51.874;8.430;2024-02-16T02:38:11;100276.88;;;9.88;94.33
4576;BME280;2300;51.874;8.430;2024-02-16T02:40:38;100274.72;;;9.90;93.92
4576;BME280;2300;51.874;8.430;2024-02-16T02:43:04;100275.22;;;9.98;94.16
4576;BME280;2300;51.874;8.430;2024-02-16T02:45:31;100262.91;;;10.01;93.80
4576;BME280;2300;51.874;8.430;2024-02-16T02:47:57;100270.69;;;10.04;93.33
4576;BME280;2300;51.874;8.430;2024-02-16T02:50:24;100263.03;;;10.06;93.22
4576;BME280;2300;51.874;8.430;2024-02-16T02:52:50;100267.44;;;9.95;93.48
4576;BME280;2300;51.874;8.430;2024-02-16T02:55:18;100258.16;;;10.08;92.88
4576;BME280;2300;51.874;8.430;2024-02-16T02:57:45;100256.47;;;10.07;92.67
4576;BME280;2300;51.874;8.430;2024-02-16T03:00:12;100245.88;;;9.99;92.81
4576;BME280;2300;51.874;8.430;2024-02-16T03:02:39;100252.09;;;9.94;92.86
4576;BME280;2300;51.874;8.430;2024-02-16T03:05:06;100254.22;;;9.92;93.04
4576;BME280;2300;51.874;8.430;2024-02-16T03:07:33;100253.25;;;9.87;92.91
4576;BME280;2300;51.874;8.430;2024-02-16T03:10:00;100254.59;;;9.84;93.13
4576;BME280;2300;51.874;8.430;2024-02-16T03:12:28;100243.63;;;9.84;93.40
4576;BME280;2300;51.874;8.430;2024-02-16T03:14:54;100246.09;;;9.86;92.70
4576;BME280;2300;51.874;8.430;2024-02-16T03:17:21;100251.13;;;9.89;92.70
4576;BME280;2300;51.874;8.430;2024-02-16T03:19:47;100254.44;;;9.91;93.01
4576;BME280;2300;51.874;8.430;2024-02-16T03:22:14;100248.97;;;9.91;92.76
4576;BME280;2300;51.874;8.430;2024-02-16T03:24:40;100246.34;;;9.96;92.53
4576;BME280;2300;51.874;8.430;2024-02-16T03:27:07;100251.38;;;9.99;91.97
4576;BME280;2300;51.874;8.430;2024-02-16T03:29:35;100243.25;;;9.92;92.28
4576;BME280;2300;51.874;8.430;2024-02-16T03:32:01;100247.06;;;9.91;92.44
4576;BME280;2300;51.874;8.430;2024-02-16T03:34:28;100240.84;;;9.96;92.14
4576;BME280;2300;51.874;8.430;2024-02-16T03:36:54;100234.66;;;9.89;91.59
4576;BME280;2300;51.874;8.430;2024-02-16T03:39:21;100238.69;;;9.75;92.11
4576;BME280;2300;51.874;8.430;2024-02-16T03:41:47;100238.34;;;9.71;92.94
4576;BME280;2300;51.874;8.430;2024-02-16T03:44:15;100253.97;;;9.71;92.36
4576;BME280;2300;51.874;8.430;2024-02-16T03:46:43;100247.53;;;9.77;92.72
4576;BME280;2300;51.874;8.430;2024-02-16T03:49:09;100252.41;;;9.75;92.11
4576;BME280;2300;51.874;8.430;2024-02-16T03:51:36;100245.41;;;9.79;92.04
4576;BME280;2300;51.874;8.430;2024-02-16T03:54:03;100236.06;;;9.80;91.74
4576;BME280;2300;51.874;8.430;2024-02-16T03:56:30;100239.28;;;9.65;91.94
4576;BME280;2300;51.874;8.430;2024-02-16T03:58:56;100241.56;;;9.80;92.20
4576;BME280;2300;51.874;8.430;2024-02-16T04:01:23;100241.22;;;9.76;91.99
4576;BME280;2300;51.874;8.430;2024-02-16T04:03:51;100256.38;;;9.79;92.12
4576;BME280;2300;51.874;8.430;2024-02-16T04:06:18;100254.34;;;9.74;91.41
4576;BME280;2300;51.874;8.430;2024-02-16T04:08:45;100248.03;;;9.74;91.90
4576;BME280;2300;51.874;8.430;2024-02-16T04:11:11;100236.81;;;9.64;91.56
4576;BME280;2300;51.874;8.430;2024-02-16T04:13:39;100250.25;;;9.65;92.15
4576;BME280;2300;51.874;8.430;2024-02-16T04:16:06;100246.56;;;9.59;92.34
4576;BME280;2300;51.874;8.430;2024-02-16T04:18:33;100243.22;;;9.57;92.40
4576;BME280;2300;51.874;8.430;2024-02-16T04:21:01;100247.41;;;9.60;92.30
4576;BME280;2300;51.874;8.430;2024-02-16T04:23:27;100249.91;;;9.62;92.17
4576;BME280;2300;51.874;8.430;2024-02-16T04:25:54;100248.22;;;9.61;92.25
4576;BME280;2300;51.874;8.430;2024-02-16T04:28:21;100245.13;;;9.57;92.07
4576;BME280;2300;51.874;8.430;2024-02-16T04:30:49;100246.09;;;9.63;92.40
4576;BME280;2300;51.874;8.430;2024-02-16T04:33:15;100250.41;;;9.58;92.36
4576;BME280;2300;51.874;8.430;2024-02-16T04:35:42;100251.47;;;9.57;92.55
4576;BME280;2300;51.874;8.430;2024-02-16T04:38:13;100248.97;;;9.68;92.43
4576;BME280;2300;51.874;8.430;2024-02-16T04:40:39;100236.81;;;9.64;92.50
4576;BME280;2300;51.874;8.430;2024-02-16T04:43:06;100242.16;;;9.58;92.24
4576;BME280;2300;51.874;8.430;2024-02-16T04:45:32;100245.97;;;9.69;92.19
4576;BME280;2300;51.874;8.430;2024-02-16T04:48:02;100244.56;;;9.67;91.53
4576;BME280;2300;51.874;8.430;2024-02-16T04:50:29;100256.25;;;9.74;92.04
4576;BME280;2300;51.874;8.430;2024-02-16T04:52:55;100264.81;;;9.77;91.24
4576;BME280;2300;51.874;8.430;2024-02-16T04:55:23;100255.75;;;9.77;91.09
4576;BME280;2300;51.874;8.430;2024-02-16T04:57:50;100255.28;;;9.80;90.92
4576;BME280;2300;51.874;8.430;2024-02-16T05:00:17;100256.38;;;9.79;90.29
4576;BME280;2300;51.874;8.430;2024-02-16T05:02:43;100256.81;;;9.76;90.76
4576;BME280;2300;51.874;8.430;2024-02-16T05:05:10;100248.84;;;9.74;90.58
4576;BME280;2300;51.874;8.430;2024-02-16T05:07:36;100253.84;;;9.77;90.78
4576;BME280;2300;51.874;8.430;2024-02-16T05:10:07;100246.69;;;9.76;90.54
4576;BME280;2300;51.874;8.430;2024-02-16T05:12:36;100236.78;;;9.75;90.74
4576;BME280;2300;51.874;8.430;2024-02-16T05:15:03;100243.38;;;9.74;90.57
4576;BME280;2300;51.874;8.430;2024-02-16T05:17:31;100228.47;;;9.82;90.24
4576;BME280;2300;51.874;8.430;2024-02-16T05:19:57;100241.69;;;9.85;89.74
4576;BME280;2300;51.874;8.430;2024-02-16T05:22:24;100246.81;;;9.93;89.54
4576;BME280;2300;51.874;8.430;2024-02-16T05:24:50;100241.81;;;9.90;89.39
4576;BME280;2300;51.874;8.430;2024-02-16T05:27:17;100240.72;;;10.02;89.22
4576;BME280;2300;51.874;8.430;2024-02-16T05:29:46;100237.63;;;10.11;89.10
4576;BME280;2300;51.874;8.430;2024-02-16T05:32:13;100228.69;;;10.15;88.58
4576;BME280;2300;51.874;8.430;2024-02-16T05:34:39;100216.28;;;10.01;88.44
4576;BME280;2300;51.874;8.430;2024-02-16T05:37:07;100229.38;;;10.22;87.99
4576;BME280;2300;51.874;8.430;2024-02-16T05:39:36;100224.03;;;10.16;88.14
4576;BME280;2300;51.874;8.430;2024-02-16T05:42:19;100227.00;;;10.14;88.42
4576;BME280;2300;51.874;8.430;2024-02-16T05:44:46;100229.25;;;10.17;88.27
4576;BME280;2300;51.874;8.430;2024-02-16T05:47:13;100226.41;;;10.12;88.02
4576;BME280;2300;51.874;8.430;2024-02-16T05:49:40;100224.38;;;10.19;88.21
4576;BME280;2300;51.874;8.430;2024-02-16T05:52:06;100225.78;;;10.22;88.20
4576;BME280;2300;51.874;8.430;2024-02-16T05:54:46;100229.38;;;10.22;88.01
4576;BME280;2300;51.874;8.430;2024-02-16T05:57:12;100231.09;;;10.23;88.08
4576;BME280;2300;51.874;8.430;2024-02-16T05:59:39;100228.94;;;10.25;87.64
4576;BME280;2300;51.874;8.430;2024-02-16T06:02:08;100225.09;;;10.26;87.51
4576;BME280;2300;51.874;8.430;2024-02-16T06:04:36;100232.03;;;10.29;88.19
4576;BME280;2300;51.874;8.430;2024-02-16T06:07:02;100232.84;;;10.18;88.36
4576;BME280;2300;51.874;8.430;2024-02-16T06:09:30;100231.09;;;10.23;88.27
4576;BME280;2300;51.874;8.430;2024-02-16T06:12:03;100230.00;;;10.13;88.36
4576;BME280;2300;51.874;8.430;2024-02-16T06:14:32;100231.66;;;10.14;88.28
4576;BME280;2300;51.874;8.430;2024-02-16T06:16:59;100235.72;;;10.11;88.32
4576;BME280;2300;51.874;8.430;2024-02-16T06:19:26;100234.63;;;10.12;88.90
4576;BME280;2300;51.874;8.430;2024-02-16T06:21:53;100232.28;;;10.16;88.35
4576;BME280;2300;51.874;8.430;2024-02-16T06:24:20;100242.97;;;10.17;88.45
4576;BME280;2300;51.874;8.430;2024-02-16T06:26:48;100238.34;;;10.18;88.17
4576;BME280;2300;51.874;8.430;2024-02-16T06:29:14;100248.00;;;10.20;88.19
4576;BME280;2300;51.874;8.430;2024-02-16T06:31:41;100246.78;;;10.16;88.71
4576;BME280;2300;51.874;8.430;2024-02-16T06:34:07;100247.28;;;10.13;88.59
4576;BME280;2300;51.874;8.430;2024-02-16T06:36:35;100250.16;;;10.18;88.64
4576;BME280;2300;51.874;8.430;2024-02-16T06:39:02;100254.94;;;10.23;88.65
4576;BME280;2300;51.874;8.430;2024-02-16T06:41:29;100257.31;;;10.19;88.22
4576;BME280;2300;51.874;8.430;2024-02-16T06:43:55;100264.47;;;10.20;88.50
4576;BME280;2300;51.874;8.430;2024-02-16T06:46:22;100271.75;;;10.26;88.18
4576;BME280;2300;51.874;8.430;2024-02-16T06:48:50;100264.84;;;10.24;88.56
4576;BME280;2300;51.874;8.430;2024-02-16T06:51:17;100272.34;;;10.28;88.35
4576;BME280;2300;51.874;8.430;2024-02-16T06:53:45;100266.03;;;10.28;88.49
4576;BME280;2300;51.874;8.430;2024-02-16T06:56:11;100271.41;;;10.23;88.57
4576;BME280;2300;51.874;8.430;2024-02-16T06:58:38;100268.88;;;10.33;87.97
4576;BME280;2300;51.874;8.430;2024-02-16T07:01:04;100282.38;;;10.34;88.33
4576;BME280;2300;51.874;8.430;2024-02-16T07:03:31;100284.41;;;10.39;88.34
4576;BME280;2300;51.874;8.430;2024-02-16T07:05:57;100280.09;;;10.43;88.28
4576;BME280;2300;51.874;8.430;2024-02-16T07:08:24;100291.91;;;10.43;88.31
4576;BME280;2300;51.874;8.430;2024-02-16T07:10:52;100295.94;;;10.53;88.76
4576;BME280;2300;51.874;8.430;2024-02-16T07:13:19;100293.91;;;10.60;88.44
4576;BME280;2300;51.874;8.430;2024-02-16T07:15:46;100296.16;;;10.63;88.22
4576;BME280;2300;51.874;8.430;2024-02-16T07:18:13;100300.22;;;10.72;88.27
4576;BME280;2300;51.874;8.430;2024-02-16T07:20:40;100301.63;;;10.74;87.97
4576;BME280;2300;51.874;8.430;2024-02-16T07:23:06;100300.31;;;10.77;88.04
4576;BME280;2300;51.874;8.430;2024-02-16T07:25:34;100304.72;;;10.78;88.01
4576;BME280;2300;51.874;8.430;2024-02-16T07:28:02;100302.56;;;10.80;88.03
4576;BME280;2300;51.874;8.430;2024-02-16T07:30:30;100307.34;;;10.73;87.71
4576;BME280;2300;51.874;8.430;2024-02-16T07:32:56;100306.88;;;10.76;88.28
4576;BME280;2300;51.874;8.430;2024-02-16T07:35:23;100316.31;;;10.80;87.88
4576;BME280;2300;51.874;8.430;2024-02-16T07:37:49;100306.88;;;10.76;88.01
4576;BME280;2300;51.874;8.430;2024-02-16T07:40:17;100292.53;;;10.74;88.13
4576;BME280;2300;51.874;8.430;2024-02-16T07:42:43;100304.50;;;10.68;87.78
4576;BME280;2300;51.874;8.430;2024-02-16T07:45:12;100300.22;;;10.72;88.18
4576;BME280;2300;51.874;8.430;2024-02-16T07:47:40;100293.13;;;10.88;88.09
4576;BME280;2300;51.874;8.430;2024-02-16T07:50:07;100287.66;;;11.04;87.70
4576;BME280;2300;51.874;8.430;2024-02-16T07:52:34;100279.88;;;11.13;87.35
4576;BME280;2300;51.874;8.430;2024-02-16T07:55:01;100278.25;;;11.28;86.84
4576;BME280;2300;51.874;8.430;2024-02-16T07:57:27;100280.69;;;11.42;86.60
4576;BME280;2300;51.874;8.430;2024-02-16T07:59:54;100281.94;;;11.51;86.13
4576;BME280;2300;51.874;8.430;2024-02-16T08:02:22;100277.47;;;11.61;86.13
4576;BME280;2300;51.874;8.430;2024-02-16T08:04:49;100283.97;;;11.72;85.98
4576;BME280;2300;51.874;8.430;2024-02-16T08:07:15;100278.47;;;11.72;85.53
4576;BME280;2300;51.874;8.430;2024-02-16T08:09:43;100289.84;;;11.76;85.30
4576;BME280;2300;51.874;8.430;2024-02-16T08:12:10;100292.31;;;11.94;85.29
4576;BME280;2300;51.874;8.430;2024-02-16T08:14:37;100297.00;;;11.93;84.56
4576;BME280;2300;51.874;8.430;2024-02-16T08:17:04;100297.66;;;12.00;84.59
4576;BME280;2300;51.874;8.430;2024-02-16T08:19:33;100294.56;;;12.13;84.52
4576;BME280;2300;51.874;8.430;2024-02-16T08:22:00;100300.13;;;12.19;84.30
4576;BME280;2300;51.874;8.430;2024-02-16T08:24:27;100290.94;;;12.30;84.34
4576;BME280;2300;51.874;8.430;2024-02-16T08:26:53;100301.13;;;12.29;84.46
4576;BME280;2300;51.874;8.430;2024-02-16T08:29:20;100294.84;;;12.34;83.67
4576;BME280;2300;51.874;8.430;2024-02-16T08:31:47;100312.63;;;12.43;84.40
4576;BME280;2300;51.874;8.430;2024-02-16T08:34:14;100321.53;;;12.50;83.92
4576;BME280;2300;51.874;8.430;2024-02-16T08:36:44;100324.75;;;12.64;83.92
4576;BME280;2300;51.874;8.430;2024-02-16T08:39:12;100324.38;;;12.77;82.92
4576;BME280;2300;51.874;8.430;2024-02-16T08:41:39;100330.88;;;12.87;82.75
4576;BME280;2300;51.874;8.430;2024-02-16T08:44:06;100333.09;;;12.90;82.24
4576;BME280;2300;51.874;8.430;2024-02-16T08:46:34;100348.81;;;13.12;81.75
4576;BME280;2300;51.874;8.430;2024-02-16T08:49:01;100354.44;;;13.22;81.91
4576;BME280;2300;51.874;8.430;2024-02-16T08:51:27;100356.19;;;13.28;82.03
4576;BME280;2300;51.874;8.430;2024-02-16T08:53:55;100355.28;;;13.22;82.23
4576;BME280;2300;51.874;8.430;2024-02-16T08:56:21;100361.25;;;13.36;82.19
4576;BME280;2300;51.874;8.430;2024-02-16T08:58:48;100361.03;;;13.43;82.77
4576;BME280;2300;51.874;8.430;2024-02-16T09:01:14;100350.94;;;13.53;82.07
4576;BME280;2300;51.874;8.430;2024-02-16T09:03:42;100361.34;;;13.46;81.99
4576;BME280;2300;51.874;8.430;2024-02-16T09:06:08;100360.94;;;13.59;82.46
4576;BME280;2300;51.874;8.430;2024-02-16T09:08:35;100362.56;;;13.55;82.65
4576;BME280;2300;51.874;8.430;2024-02-16T09:11:03;100357.81;;;13.51;82.42
4576;BME280;2300;51.874;8.430;2024-02-16T09:13:31;100357.94;;;13.61;81.87
4576;BME280;2300;51.874;8.430;2024-02-16T09:15:57;100369.53;;;13.63;81.06
4576;BME280;2300;51.874;8.430;2024-02-16T09:18:24;100361.63;;;13.71;81.53
4576;BME280;2300;51.874;8.430;2024-02-16T09:20:51;100365.94;;;13.62;80.74
4576;BME280;2300;51.874;8.430;2024-02-16T09:23:17;100366.00;;;13.67;80.93
4576;BME280;2300;51.874;8.430;2024-02-16T09:25:44;100374.00;;;13.69;80.71
4576;BME280;2300;51.874;8.430;2024-02-16T09:28:12;100371.47;;;13.62;80.72
4576;BME280;2300;51.874;8.430;2024-02-16T09:30:39;100375.63;;;13.65;80.28
4576;BME280;2300;51.874;8.430;2024-02-16T09:33:05;100376.56;;;13.75;80.98
4576;BME280;2300;51.874;8.430;2024-02-16T09:35:32;100382.81;;;13.93;80.72
4576;BME280;2300;51.874;8.430;2024-02-16T09:37:59;100386.59;;;13.87;80.65
4576;BME280;2300;51.874;8.430;2024-02-16T09:40:26;100397.16;;;13.95;80.56
4576;BME280;2300;51.874;8.430;2024-02-16T09:42:52;100395.22;;;13.95;80.63
4576;BME280;2300;51.874;8.430;2024-02-16T09:45:20;100406.31;;;14.00;80.23
4576;BME280;2300;51.874;8.430;2024-02-16T09:47:47;100400.50;;;13.97;80.57
4576;BME280;2300;51.874;8.430;2024-02-16T09:50:15;100404.34;;;13.96;80.56
4576;BME280;2300;51.874;8.430;2024-02-16T09:52:46;100400.94;;;13.84;81.05
4576;BME280;2300;51.874;8.430;2024-02-16T09:55:14;100393.75;;;13.82;80.66
4576;BME280;2300;51.874;8.430;2024-02-16T09:57:41;100403.50;;;13.95;80.46
4576;BME280;2300;51.874;8.430;2024-02-16T10:00:09;100398.81;;;13.96;79.59
4576;BME280;2300;51.874;8.430;2024-02-16T10:02:40;100398.44;;;14.09;79.91
4576;BME280;2300;51.874;8.430;2024-02-16T10:05:13;100399.00;;;14.11;79.04
4576;BME280;2300;51.874;8.430;2024-02-16T10:07:40;100412.88;;;14.21;78.66
4576;BME280;2300;51.874;8.430;2024-02-16T10:10:20;100405.56;;;14.37;78.06
4576;BME280;2300;51.874;8.430;2024-02-16T10:12:47;100416.41;;;14.43;77.37
4576;BME280;2300;51.874;8.430;2024-02-16T10:15:19;100422.06;;;14.63;77.64
4576;BME280;2300;51.874;8.430;2024-02-16T10:17:57;100424.34;;;14.72;77.84
4576;BME280;2300;51.874;8.430;2024-02-16T10:20:23;100428.28;;;14.81;77.26
4576;BME280;2300;51.874;8.430;2024-02-16T10:22:50;100433.94;;;15.01;77.27
4576;BME280;2300;51.874;8.430;2024-02-16T10:25:17;100438.19;;;15.19;77.36
4576;BME280;2300;51.874;8.430;2024-02-16T10:27:46;100438.56;;;15.37;77.04
4576;BME280;2300;51.874;8.430;2024-02-16T10:30:13;100444.06;;;15.27;76.80
4576;BME280;2300;51.874;8.430;2024-02-16T10:32:40;100446.28;;;15.35;76.59
4576;BME280;2300;51.874;8.430;2024-02-16T10:35:08;100451.81;;;15.35;76.55
4576;BME280;2300;51.874;8.430;2024-02-16T10:37:36;100451.81;;;15.30;75.91
4576;BME280;2300;51.874;8.430;2024-02-16T10:40:04;100454.00;;;15.23;76.53
4576;BME280;2300;51.874;8.430;2024-02-16T10:42:30;100457.88;;;15.27;76.48
4576;BME280;2300;51.874;8.430;2024-02-16T10:45:00;100454.03;;;15.28;76.39
4576;BME280;2300;51.874;8.430;2024-02-16T10:47:27;100450.66;;;15.21;76.28
4576;BME280;2300;51.874;8.430;2024-02-16T10:49:54;100451.25;;;15.28;76.43
4576;BME280;2300;51.874;8.430;2024-02-16T10:52:22;100462.28;;;15.18;75.80
4576;BME280;2300;51.874;8.430;2024-02-16T10:54:50;100458.31;;;15.09;76.22
4576;BME280;2300;51.874;8.430;2024-02-16T10:57:17;100460.91;;;15.26;76.22
4576;BME280;2300;51.874;8.430;2024-02-16T10:59:44;100459.47;;;15.13;76.52
4576;BME280;2300;51.874;8.430;2024-02-16T11:02:11;100466.13;;;15.17;76.57
4576;BME280;2300;51.874;8.430;2024-02-16T11:04:39;100461.75;;;15.26;76.69
4576;BME280;2300;51.874;8.430;2024-02-16T11:07:11;100457.84;;;15.17;76.86
4576;BME280;2300;51.874;8.430;2024-02-16T11:09:40;100461.59;;;15.06;77.32
4576;BME280;2300;51.874;8.430;2024-02-16T11:12:07;100469.97;;;15.11;77.30
4576;BME280;2300;51.874;8.430;2024-02-16T11:14:35;100466.53;;;14.99;77.14
4576;BME280;2300;51.874;8.430;2024-02-16T11:17:07;100462.03;;;14.88;77.71
4576;BME280;2300;51.874;8.430;2024-02-16T11:19:34;100467.63;;;14.98;77.97
4576;BME280;2300;51.874;8.430;2024-02-16T11:22:03;100469.47;;;14.87;78.34
4576;BME280;2300;51.874;8.430;2024-02-16T11:24:33;100466.19;;;14.90;77.90
4576;BME280;2300;51.874;8.430;2024-02-16T11:27:04;100464.25;;;14.86;78.59
4576;BME280;2300;51.874;8.430;2024-02-16T11:29:33;100466.09;;;14.75;79.04
4576;BME280;2300;51.874;8.430;2024-02-16T11:32:00;100469.69;;;14.76;78.83
4576;BME280;2300;51.874;8.430;2024-02-16T11:34:28;100460.56;;;14.75;78.46
4576;BME280;2300;51.874;8.430;2024-02-16T11:36:55;100455.84;;;14.71;78.52
4576;BME280;2300;51.874;8.430;2024-02-16T11:39:23;100475.22;;;14.76;79.11
4576;BME280;2300;51.874;8.430;2024-02-16T11:41:59;100470.47;;;14.66;79.37
4576;BME280;2300;51.874;8.430;2024-02-16T11:44:28;100474.28;;;14.60;80.47
4576;BME280;2300;51.874;8.430;2024-02-16T11:46:55;100480.34;;;14.62;81.72
4576;BME280;2300;51.874;8.430;2024-02-16T11:49:22;100483.03;;;14.52;83.22
4576;BME280;2300;51.874;8.430;2024-02-16T11:51:48;100485.78;;;14.52;82.51
4576;BME280;2300;51.874;8.430;2024-02-16T11:54:15;100481.44;;;14.56;83.10
4576;BME280;2300;51.874;8.430;2024-02-16T11:56:43;100482.84;;;14.63;83.32
4576;BME280;2300;51.874;8.430;2024-02-16T11:59:12;100480.59;;;14.55;82.10
4576;BME280;2300;51.874;8.430;2024-02-16T12:01:50;100485.53;;;14.53;81.45
4576;BME280;2300;51.874;8.430;2024-02-16T12:04:21;100479.00;;;14.64;81.89
4576;BME280;2300;51.874;8.430;2024-02-16T12:06:47;100484.25;;;14.61;81.60
4576;BME280;2300;51.874;8.430;2024-02-16T12:09:15;100480.97;;;14.69;81.28
4576;BME280;2300;51.874;8.430;2024-02-16T12:11:41;100483.81;;;14.79;81.14
4576;BME280;2300;51.874;8.430;2024-02-16T12:14:08;100479.41;;;14.83;80.95
4576;BME280;2300;51.874;8.430;2024-02-16T12:16:36;100486.50;;;15.06;81.08
4576;BME280;2300;51.874;8.430;2024-02-16T12:19:04;100487.00;;;15.03;80.55
4576;BME280;2300;51.874;8.430;2024-02-16T12:21:31;100480.34;;;14.99;79.71
4576;BME280;2300;51.874;8.430;2024-02-16T12:23:58;100485.81;;;14.89;79.84
4576;BME280;2300;51.874;8.430;2024-02-16T12:26:24;100480.81;;;14.86;80.16
4576;BME280;2300;51.874;8.430;2024-02-16T12:28:51;100488.69;;;15.04;79.92
4576;BME280;2300;51.874;8.430;2024-02-16T12:31:18;100488.69;;;15.04;79.95
4576;BME280;2300;51.874;8.430;2024-02-16T12:33:45;100488.78;;;15.14;79.70
4576;BME280;2300;51.874;8.430;2024-02-16T12:36:13;100495.09;;;15.10;79.71
4576;BME280;2300;51.874;8.430;2024-02-16T12:38:40;100491.88;;;15.23;79.28
4576;BME280;2300;51.874;8.430;2024-02-16T12:41:06;100492.16;;;15.26;79.24
4576;BME280;2300;51.874;8.430;2024-02-16T12:43:34;100486.59;;;15.16;79.21
4576;BME280;2300;51.874;8.430;2024-02-16T12:46:00;100494.31;;;15.14;79.21
4576;BME280;2300;51.874;8.430;2024-02-16T12:48:29;100494.28;;;15.09;79.38
4576;BME280;2300;51.874;8.430;2024-02-16T12:50:55;100484.28;;;15.08;79.71
4576;BME280;2300;51.874;8.430;2024-02-16T12:53:25;100489.00;;;15.07;79.57
4576;BME280;2300;51.874;8.430;2024-02-16T12:55:54;100485.19;;;15.19;79.84
4576;BME280;2300;51.874;8.430;2024-02-16T12:58:20;100493.63;;;15.34;79.73
4576;BME280;2300;51.874;8.430;2024-02-16T13:00:47;100475.94;;;15.03;79.37
4576;BME280;2300;51.874;8.430;2024-02-16T13:03:13;100464.84;;;14.98;79.24
4576;BME280;2300;51.874;8.430;2024-02-16T13:05:40;100501.50;;;15.15;79.30
4576;BME280;2300;51.874;8.430;2024-02-16T13:08:08;100498.19;;;15.13;79.79
4576;BME280;2300;51.874;8.430;2024-02-16T13:10:36;100494.84;;;15.11;79.68
4576;BME280;2300;51.874;8.430;2024-02-16T13:13:02;100506.16;;;15.10;79.72
4576;BME280;2300;51.874;8.430;2024-02-16T13:15:29;100507.16;;;14.98;80.11